createdAt,value
2022-08-22T00:01:14.364Z,99.60
2022-08-22T00:02:57.280Z,82.20
2022-08-22T00:03:06.941Z,96.90
2022-08-22T00:03:15.953Z,97.20
2022-08-22T00:06:22.958Z,99.90
2022-08-22T00:09:15.981Z,99.90
2022-08-22T00:12:26.488Z,99.90
2022-08-22T00:15:31.587Z,99.90
2022-08-22T00:18:29.726Z,99.90
2022-08-22T00:21:19.409Z,99.90
2022-08-22T00:23:53.009Z,99.90
2022-08-22T00:26:45.082Z,99.90
2022-08-22T00:29:23.660Z,99.90
2022-08-22T00:32:14.521Z,99.90
2022-08-22T00:34:58.675Z,99.90
2022-08-22T00:37:43.328Z,99.90
2022-08-22T00:41:06.615Z,99.90
2022-08-22T00:44:30.384Z,99.90
2022-08-22T00:47:46.106Z,99.90
2022-08-22T00:50:24.781Z,99.90
2022-08-22T00:53:22.685Z,99.90
2022-08-22T00:56:01.614Z,99.90
2022-08-22T00:58:45.836Z,99.90
2022-08-22T01:01:15.437Z,99.90
2022-08-22T01:03:48.149Z,99.90
2022-08-22T01:06:37.171Z,99.90
2022-08-22T01:09:43.432Z,99.90
2022-08-22T01:12:41.988Z,99.90
2022-08-22T01:15:24.701Z,99.90
2022-08-22T01:18:18.881Z,99.90
2022-08-22T01:21:26.047Z,99.90
2022-08-22T01:24:26.715Z,99.90
2022-08-22T01:28:01.458Z,99.90
2022-08-22T01:31:23.736Z,99.90
2022-08-22T01:34:34.044Z,99.90
2022-08-22T01:37:34.009Z,99.90
2022-08-22T01:40:53.797Z,99.90
2022-08-22T01:44:21.740Z,99.90
2022-08-22T01:47:22.858Z,99.90
2022-08-22T01:52:48.676Z,99.90
2022-08-22T01:55:26.971Z,99.90
2022-08-22T01:57:59.232Z,99.90
2022-08-22T02:00:34.852Z,99.90
2022-08-22T02:03:27.093Z,99.90
2022-08-22T02:06:18.044Z,99.90
2022-08-22T02:09:01.609Z,99.90
2022-08-22T02:11:42.945Z,99.90
2022-08-22T02:15:00.202Z,99.90
2022-08-22T02:17:32.688Z,99.90
2022-08-22T02:20:33.335Z,99.90
2022-08-22T02:23:33.612Z,99.90
2022-08-22T02:26:03.423Z,99.90
2022-08-22T02:28:57.177Z,99.90
2022-08-22T02:31:43.310Z,99.90
2022-08-22T02:34:42.732Z,99.90
2022-08-22T02:37:15.632Z,99.90
2022-08-22T02:39:48.637Z,99.90
2022-08-22T02:42:34.787Z,99.90
2022-08-22T02:45:14.072Z,99.90
2022-08-22T02:48:32.484Z,99.90
2022-08-22T02:51:17.479Z,99.90
2022-08-22T02:54:24.789Z,99.90
2022-08-22T02:57:14.318Z,99.90
2022-08-22T03:00:31.791Z,99.90
2022-08-22T03:03:15.823Z,99.90
2022-08-22T03:05:45.783Z,99.90
2022-08-22T03:08:29.382Z,99.90
2022-08-22T03:11:13.815Z,99.90
2022-08-22T03:14:17.527Z,99.90
2022-08-22T03:17:45.288Z,99.90
2022-08-22T03:20:23.318Z,99.90
2022-08-22T03:23:36.971Z,99.90
2022-08-22T03:26:14.875Z,99.90
2022-08-22T03:29:04.959Z,99.90
2022-08-22T03:31:32.959Z,99.90
2022-08-22T03:34:28.944Z,99.90
2022-08-22T03:37:11.787Z,99.90
2022-08-22T03:40:20.176Z,99.90
2022-08-22T03:43:21.549Z,99.90
2022-08-22T03:46:07.724Z,99.90
2022-08-22T03:49:02.401Z,99.90
2022-08-22T03:52:13.919Z,99.90
2022-08-22T03:55:24.277Z,99.90
2022-08-22T03:58:27.896Z,99.90
2022-08-22T04:01:26.662Z,99.90
2022-08-22T04:04:09.551Z,99.90
2022-08-22T04:07:11.810Z,99.90
2022-08-22T04:10:36.986Z,99.90
2022-08-22T04:13:25.176Z,99.90
2022-08-22T04:16:20.841Z,99.90
2022-08-22T04:19:18.481Z,99.90
2022-08-22T04:22:15.879Z,99.90
2022-08-22T04:25:15.607Z,99.90
2022-08-22T04:28:03.619Z,99.90
2022-08-22T04:30:58.545Z,99.90
2022-08-22T04:33:39.575Z,99.90
2022-08-22T04:36:31.315Z,99.90
2022-08-22T04:39:07.243Z,99.90
2022-08-22T04:42:00.646Z,99.90
2022-08-22T04:44:46.644Z,99.90
2022-08-22T04:48:21.511Z,99.90
2022-08-22T04:51:03.737Z,99.90
2022-08-22T04:54:20.954Z,99.90
2022-08-22T04:57:23.351Z,99.90
2022-08-22T04:59:51.152Z,99.90
2022-08-22T05:02:24.969Z,99.90
2022-08-22T05:05:04.716Z,99.90
2022-08-22T05:07:47.282Z,99.90
2022-08-22T05:10:32.957Z,99.90
2022-08-22T05:13:18.047Z,99.90
2022-08-22T05:15:51.027Z,99.90
2022-08-22T05:18:25.556Z,99.90
2022-08-22T05:21:04.390Z,99.90
2022-08-22T05:23:59.854Z,99.90
2022-08-22T05:26:28.497Z,99.90
2022-08-22T05:29:03.605Z,99.90
2022-08-22T05:31:35.592Z,99.90
2022-08-22T05:34:13.592Z,99.90
2022-08-22T05:37:08.340Z,99.90
2022-08-22T05:39:38.915Z,99.90
2022-08-22T05:42:12.384Z,99.90
2022-08-22T05:44:39.796Z,99.90
2022-08-22T05:47:34.190Z,99.90
2022-08-22T05:50:18.694Z,99.90
2022-08-22T05:53:13.172Z,99.90
2022-08-22T05:56:05.045Z,99.90
2022-08-22T05:58:53.753Z,99.90
2022-08-22T06:01:34.140Z,99.90
2022-08-22T06:04:08.581Z,99.90
2022-08-22T06:06:48.075Z,99.90
2022-08-22T06:09:47.751Z,99.90
2022-08-22T06:12:26.472Z,99.90
2022-08-22T06:15:21.067Z,99.90
2022-08-22T06:17:54.175Z,99.90
2022-08-22T06:20:27.018Z,99.90
2022-08-22T06:23:01.424Z,99.90
2022-08-22T06:25:32.729Z,99.90
2022-08-22T06:28:16.525Z,99.90
2022-08-22T06:30:46.150Z,99.90
2022-08-22T06:33:21.330Z,99.90
2022-08-22T06:36:11.384Z,99.90
2022-08-22T06:39:11.559Z,99.90
2022-08-22T06:42:12.135Z,99.90
2022-08-22T06:44:52.179Z,99.90
2022-08-22T06:47:29.167Z,99.90
2022-08-22T06:50:31.078Z,99.90
2022-08-22T06:53:01.018Z,99.90
2022-08-22T06:55:30.195Z,99.90
2022-08-22T06:58:04.050Z,99.90
2022-08-22T07:00:34.880Z,99.90
2022-08-22T07:03:08.710Z,99.90
2022-08-22T07:05:40.336Z,99.90
2022-08-22T07:08:12.392Z,99.90
2022-08-22T07:10:57.610Z,99.90
2022-08-22T07:13:26.432Z,99.90
2022-08-22T07:15:57.711Z,99.90
2022-08-22T07:18:29.677Z,99.90
2022-08-22T07:21:04.508Z,99.90
2022-08-22T07:23:40.514Z,99.90
2022-08-22T07:26:20.905Z,99.90
2022-08-22T07:29:19.801Z,99.90
2022-08-22T07:32:10.199Z,99.90
2022-08-22T07:35:24.529Z,99.90
2022-08-22T07:38:05.590Z,99.90
2022-08-22T07:41:00.641Z,99.90
2022-08-22T07:43:48.431Z,99.90
2022-08-22T07:46:33.923Z,99.90
2022-08-22T07:49:29.763Z,99.90
2022-08-22T07:52:08.251Z,99.90
2022-08-22T07:54:57.837Z,99.90
2022-08-22T07:57:36.597Z,99.90
2022-08-22T08:00:13.184Z,99.90
2022-08-22T08:02:58.258Z,99.90
2022-08-22T08:05:29.528Z,99.90
2022-08-22T08:07:57.839Z,99.90
2022-08-22T08:10:34.516Z,99.90
2022-08-22T08:13:08.259Z,99.90
2022-08-22T08:15:37.705Z,99.90
2022-08-22T08:18:11.346Z,99.90
2022-08-22T08:20:39.210Z,99.90
2022-08-22T08:23:10.719Z,99.90
2022-08-22T08:26:19.336Z,99.90
2022-08-22T08:28:50.895Z,99.90
2022-08-22T08:31:38.055Z,99.90
2022-08-22T08:34:24.444Z,99.90
2022-08-22T08:37:04.848Z,99.90
2022-08-22T08:39:54.570Z,99.30
2022-08-22T08:43:21.093Z,98.50
2022-08-22T08:46:28.046Z,98.40
2022-08-22T08:49:21.014Z,96.70
2022-08-22T08:54:51.580Z,95.70
2022-08-22T09:03:24.058Z,99.00
2022-08-22T09:06:42.516Z,93.30
2022-08-22T09:09:38.744Z,92.40
2022-08-22T09:12:56.480Z,92.20
2022-08-22T09:16:26.362Z,91.60
2022-08-22T09:19:32.295Z,91.50
2022-08-22T09:22:54.383Z,91.10
2022-08-22T09:26:06.866Z,90.70
2022-08-22T09:28:53.567Z,88.40
2022-08-22T09:31:47.623Z,90.40
2022-08-22T09:34:37.924Z,90.80
2022-08-22T09:38:08.518Z,88.10
2022-08-22T09:40:50.592Z,87.10
2022-08-22T09:43:45.693Z,91.00
2022-08-22T09:46:36.789Z,90.70
2022-08-22T09:49:32.806Z,83.30
2022-08-22T09:52:36.926Z,91.40
2022-08-22T09:55:17.010Z,81.70
2022-08-22T09:58:11.510Z,86.20
2022-08-22T10:01:10.788Z,86.90
2022-08-22T10:04:19.493Z,88.30
2022-08-22T10:07:16.935Z,77.80
2022-08-22T10:10:14.622Z,77.80
2022-08-22T10:13:12.123Z,77.30
2022-08-22T10:16:34.740Z,76.20
2022-08-22T10:19:16.642Z,73.40
2022-08-22T10:22:30.949Z,72.30
2022-08-22T10:25:22.598Z,72.40
2022-08-22T10:28:16.853Z,69.90
2022-08-22T10:31:08.588Z,70.30
2022-08-22T10:33:59.919Z,71.20
2022-08-22T10:37:05.689Z,70.30
2022-08-22T10:39:47.665Z,70.30
2022-08-22T10:42:30.156Z,71.90
2022-08-22T10:45:16.345Z,72.40
2022-08-22T10:47:54.233Z,73.60
2022-08-22T10:50:36.584Z,74.30
2022-08-22T10:53:30.476Z,73.70
2022-08-22T10:56:09.393Z,73.40
2022-08-22T10:59:29.255Z,73.10
2022-08-22T11:02:35.201Z,72.10
2022-08-22T11:05:28.176Z,86.90
2022-08-22T11:08:46.049Z,71.10
2022-08-22T11:11:44.183Z,69.60
2022-08-22T11:14:31.643Z,68.40
2022-08-22T11:17:40.710Z,67.40
2022-08-22T11:20:22.310Z,67.70
2022-08-22T11:23:24.085Z,66.30
2022-08-22T11:26:29.232Z,65.90
2022-08-22T11:29:25.118Z,67.60
2022-08-22T11:32:34.736Z,67.00
2022-08-22T11:35:11.858Z,66.40
2022-08-22T11:38:14.544Z,67.90
2022-08-22T11:41:00.485Z,65.70
2022-08-22T11:43:48.175Z,63.60
2022-08-22T11:46:19.914Z,64.50
2022-08-22T11:49:03.480Z,66.00
2022-08-22T11:52:03.750Z,65.90
2022-08-22T11:54:42.363Z,65.80
2022-08-22T11:57:31.067Z,65.70
2022-08-22T12:00:32.589Z,66.60
2022-08-22T12:03:23.322Z,67.50
2022-08-22T12:06:30.780Z,67.00
2022-08-22T12:09:35.832Z,66.70
2022-08-22T12:12:34.783Z,65.90
2022-08-22T12:15:14.275Z,65.80
2022-08-22T12:18:21.179Z,64.80
2022-08-22T12:21:22.106Z,65.50
2022-08-22T12:24:28.920Z,67.40
2022-08-22T12:27:41.984Z,66.90
2022-08-22T12:30:34.619Z,65.90
2022-08-22T12:33:22.956Z,67.00
2022-08-22T12:36:24.146Z,65.30
2022-08-22T12:39:00.093Z,64.20
2022-08-22T12:42:05.035Z,64.70
2022-08-22T12:45:17.431Z,64.70
2022-08-22T12:48:27.414Z,67.80
2022-08-22T12:51:17.364Z,64.50
2022-08-22T12:54:15.071Z,64.80
2022-08-22T12:57:25.174Z,65.80
2022-08-22T13:00:30.669Z,67.50
2022-08-22T13:03:04.037Z,65.20
2022-08-22T13:05:40.374Z,65.70
2022-08-22T13:08:44.450Z,64.10
2022-08-22T13:11:22.279Z,64.00
2022-08-22T13:13:58.360Z,65.50
2022-08-22T13:16:38.929Z,63.20
2022-08-22T13:19:14.550Z,63.50
2022-08-22T13:21:56.951Z,63.90
2022-08-22T13:24:51.877Z,62.00
2022-08-22T13:28:00.899Z,61.50
2022-08-22T13:30:38.875Z,62.10
2022-08-22T13:33:12.510Z,61.20
2022-08-22T13:36:06.716Z,59.60
2022-08-22T13:38:48.713Z,61.70
2022-08-22T13:41:26.093Z,59.30
2022-08-22T13:44:08.824Z,58.60
2022-08-22T13:46:44.504Z,58.80
2022-08-22T13:49:42.444Z,59.20
2022-08-22T13:52:49.320Z,59.20
2022-08-22T13:55:49.579Z,60.00
2022-08-22T13:58:40.202Z,61.30
2022-08-22T14:01:32.361Z,62.20
2022-08-22T14:04:26.661Z,61.40
2022-08-22T14:07:29.477Z,63.30
2022-08-22T14:10:03.787Z,62.90
2022-08-22T14:12:56.960Z,63.00
2022-08-22T14:15:45.308Z,62.70
2022-08-22T14:18:30.423Z,64.40
2022-08-22T14:21:33.359Z,63.60
2022-08-22T14:24:25.659Z,62.00
2022-08-22T14:27:13.688Z,61.80
2022-08-22T14:29:53.471Z,62.30
2022-08-22T14:32:29.706Z,62.90
2022-08-22T14:35:25.733Z,62.20
2022-08-22T14:38:17.821Z,62.30
2022-08-22T14:40:46.091Z,59.60
2022-08-22T14:43:28.831Z,59.40
2022-08-22T14:46:09.091Z,59.80
2022-08-22T14:49:13.480Z,59.30
2022-08-22T14:52:02.254Z,59.20
2022-08-22T14:54:31.774Z,60.40
2022-08-22T14:57:02.685Z,60.10
2022-08-22T14:59:50.272Z,61.40
2022-08-22T15:02:33.085Z,61.50
2022-08-22T15:05:13.189Z,61.10
2022-08-22T15:40:11.630Z,91.20
2022-08-22T15:42:47.053Z,56.40
2022-08-22T15:45:36.409Z,56.00
2022-08-22T15:48:23.944Z,54.50
2022-08-22T15:51:13.484Z,54.30
2022-08-22T15:54:25.033Z,54.20
2022-08-22T15:56:52.804Z,54.30
2022-08-22T15:59:53.476Z,54.20
2022-08-22T16:02:27.946Z,53.60
2022-08-22T16:05:08.939Z,54.10
2022-08-22T16:07:38.795Z,54.70
2022-08-22T16:10:38.518Z,55.50
2022-08-22T16:13:32.097Z,56.30
2022-08-22T16:16:13.901Z,57.60
2022-08-22T16:18:42.475Z,57.30
2022-08-22T16:21:16.783Z,58.10
2022-08-22T16:23:58.536Z,57.70
2022-08-22T16:26:31.571Z,58.50
2022-08-22T16:29:14.805Z,59.10
2022-08-22T16:31:44.969Z,59.50
2022-08-22T16:34:18.031Z,60.30
2022-08-22T16:37:03.195Z,60.60
2022-08-22T16:39:59.216Z,61.10
2022-08-22T16:42:40.649Z,61.10
2022-08-22T16:45:15.731Z,62.30
2022-08-22T16:47:57.809Z,61.40
2022-08-22T16:50:35.689Z,61.50
2022-08-22T16:53:49.114Z,62.00
2022-08-22T16:56:47.183Z,62.80
2022-08-22T16:59:47.018Z,63.90
2022-08-22T17:02:27.109Z,63.60
2022-08-22T17:05:30.241Z,64.00
2022-08-22T17:08:10.015Z,64.80
2022-08-22T17:11:13.796Z,65.90
2022-08-22T17:14:17.770Z,66.80
2022-08-22T17:17:12.668Z,67.80
2022-08-22T17:20:09.008Z,67.00
2022-08-22T17:23:13.554Z,68.00
2022-08-22T17:25:59.980Z,68.60
2022-08-22T17:28:34.335Z,68.40
2022-08-22T17:31:21.243Z,69.40
2022-08-22T17:34:44.679Z,70.30
2022-08-22T17:37:43.713Z,68.00
2022-08-22T17:40:52.636Z,67.40
2022-08-22T17:43:48.385Z,68.00
2022-08-22T17:46:34.458Z,68.10
2022-08-22T17:49:40.804Z,68.20
2022-08-22T17:52:41.118Z,67.40
2022-08-22T17:55:20.921Z,69.10
2022-08-22T17:57:56.909Z,69.60
2022-08-22T18:00:40.364Z,70.80
2022-08-22T18:03:29.509Z,71.00
2022-08-22T18:06:11.383Z,71.80
2022-08-22T18:11:45.079Z,72.60
2022-08-22T18:14:44.388Z,73.60
2022-08-22T18:17:27.614Z,73.80
2022-08-22T18:20:23.827Z,74.40
2022-08-22T18:23:28.370Z,75.00
2022-08-22T18:26:21.424Z,74.50
2022-08-22T18:29:03.658Z,73.90
2022-08-22T18:32:00.514Z,74.60
2022-08-22T18:34:42.920Z,75.30
2022-08-22T18:37:21.891Z,77.10
2022-08-22T18:40:05.092Z,78.40
2022-08-22T18:42:57.431Z,76.20
2022-08-22T18:45:46.170Z,81.60
2022-08-22T18:48:33.888Z,78.30
2022-08-22T18:51:31.045Z,81.10
2022-08-22T18:54:23.399Z,81.20
2022-08-22T18:56:54.808Z,78.90
2022-08-22T18:59:52.632Z,80.40
2022-08-22T19:03:12.473Z,79.40
2022-08-22T19:06:25.606Z,83.60
2022-08-22T19:09:25.034Z,82.90
2022-08-22T19:12:26.035Z,82.00
2022-08-22T19:15:34.294Z,78.60
2022-08-22T19:18:50.415Z,80.00
2022-08-22T19:21:55.690Z,82.00
2022-08-22T19:24:25.593Z,80.40
2022-08-22T19:27:10.534Z,80.70
2022-08-22T19:29:37.444Z,81.10
2022-08-22T19:32:13.291Z,81.50
2022-08-22T19:34:47.005Z,83.00
2022-08-22T19:37:31.921Z,81.80
2022-08-22T19:40:09.499Z,84.20
2022-08-22T19:42:40.026Z,83.80
2022-08-22T19:45:29.034Z,82.40
2022-08-22T19:48:11.698Z,83.20
2022-08-22T19:50:41.749Z,83.30
2022-08-22T19:53:42.473Z,83.30
2022-08-22T19:59:26.143Z,84.30
2022-08-22T20:02:01.278Z,85.10
2022-08-22T20:04:35.994Z,85.40
2022-08-22T20:07:40.360Z,85.90
2022-08-22T20:10:58.819Z,86.20
2022-08-22T20:13:33.341Z,86.90
2022-08-22T20:16:10.441Z,86.60
2022-08-22T20:19:08.326Z,86.80
2022-08-22T20:21:49.985Z,87.40
2022-08-22T20:24:45.012Z,87.50
2022-08-22T20:27:46.615Z,88.30
2022-08-22T20:30:19.026Z,88.30
2022-08-22T20:33:02.103Z,88.90
2022-08-22T20:36:00.119Z,89.20
2022-08-22T20:39:08.858Z,89.20
2022-08-22T20:41:42.662Z,89.00
2022-08-22T20:44:27.469Z,88.90
2022-08-22T20:47:09.324Z,89.50
2022-08-22T20:49:50.564Z,89.20
2022-08-22T20:52:41.482Z,89.60
2022-08-22T20:55:14.584Z,90.10
2022-08-22T20:58:01.156Z,90.30
2022-08-22T21:00:41.714Z,90.80
2022-08-22T21:03:25.203Z,90.60
2022-08-22T21:05:52.145Z,90.70
2022-08-22T21:08:26.538Z,91.00
2022-08-22T21:11:21.298Z,91.20
2022-08-22T21:13:49.001Z,91.70
2022-08-22T21:16:37.793Z,91.60
2022-08-22T21:19:17.355Z,91.70
2022-08-22T21:21:44.276Z,91.70
2022-08-22T21:24:11.442Z,91.80
2022-08-22T21:26:59.489Z,92.00
2022-08-22T21:29:32.817Z,92.30
2022-08-22T21:32:11.410Z,92.30
2022-08-22T21:34:44.786Z,92.60
2022-08-22T21:37:22.781Z,92.80
2022-08-22T21:40:21.023Z,92.90
2022-08-22T21:43:05.805Z,93.10
2022-08-22T21:45:41.985Z,93.40
2022-08-22T21:48:30.910Z,93.60
2022-08-22T21:51:21.579Z,93.90
2022-08-22T21:53:48.851Z,94.10
2022-08-22T21:56:30.664Z,94.30
2022-08-22T21:59:26.745Z,94.30
2022-08-22T22:02:41.627Z,94.50
2022-08-22T22:05:17.026Z,94.80
2022-08-22T22:07:47.104Z,95.00
2022-08-22T22:10:18.886Z,95.10
2022-08-22T22:12:48.553Z,95.00
2022-08-22T22:15:23.075Z,95.30
2022-08-22T22:17:50.240Z,95.10
2022-08-22T22:20:20.333Z,95.30
2022-08-22T22:22:47.614Z,95.40
2022-08-22T22:25:39.597Z,95.50
2022-08-22T22:28:25.002Z,96.00
2022-08-22T22:30:55.832Z,96.40
2022-08-22T22:33:27.816Z,96.80
2022-08-22T22:35:58.227Z,97.70
2022-08-22T22:38:25.650Z,97.30
2022-08-22T22:40:53.036Z,97.20
2022-08-22T22:43:20.083Z,97.20
2022-08-22T22:50:51.979Z,99.90
2022-08-22T22:53:21.214Z,99.00
2022-08-22T22:55:59.693Z,99.30
2022-08-22T22:58:28.715Z,99.80
2022-08-22T23:00:56.794Z,99.90
2022-08-22T23:03:25.906Z,99.90
2022-08-22T23:05:52.872Z,99.90
2022-08-22T23:08:20.227Z,99.90
2022-08-22T23:10:47.267Z,99.90
2022-08-22T23:13:14.230Z,99.90
2022-08-22T23:15:41.445Z,99.90
2022-08-22T23:18:08.415Z,99.90
2022-08-22T23:20:35.379Z,99.90
2022-08-22T23:23:02.454Z,99.90
2022-08-22T23:25:29.371Z,99.90
2022-08-22T23:27:57.863Z,99.90
2022-08-22T23:30:24.867Z,99.90
2022-08-22T23:32:51.966Z,99.90
2022-08-22T23:35:19.084Z,99.90
2022-08-22T23:37:46.028Z,99.90
2022-08-22T23:40:13.158Z,99.90
2022-08-22T23:42:40.288Z,99.90
2022-08-22T23:45:07.615Z,99.90
2022-08-22T23:47:34.600Z,99.90
2022-08-22T23:50:06.148Z,99.90
2022-08-22T23:52:33.736Z,99.90
2022-08-22T23:55:00.674Z,99.90
2022-08-22T23:57:29.491Z,99.90
2022-08-22T23:59:57.643Z,99.90
